Weather at San Carlos Airport

Public forecast

Using degrees Celsius for public forecast. Weather courtesy of forecast.io.

Closest aviation weather report (METAR) to San Carlos Airport

Report is more than 2 hours old.

Closest report is Arturo Michelena International Airport, 48.7 nm (90.2 km) NE.

2024/05/25 02:00 (retrieved 2 hours ago)

SVVA 250200Z /////KT 9999 BKN016 26/21 Q1012

Closest aviation forecast (TAF) to San Carlos Airport

Forecast is more than 12 hours old.

Closest forecast is Arturo Michelena International Airport, 48.7 nm (90.2 km) NE.

2024/05/23 12:00 (retrieved 2 days ago)

TAF TAF SVVA 231100Z 2312/2412 17003KT 9999 BKN016 TX31/2318Z TN21/2409Z TEMPO 2316/2320 09004KT 9999 BKN016 TEMPO 2323/2403 21006KT 9000 DZ BKN016